sensor_id;sensor_type;location;lat;lon;timestamp;temperature;humidity
30134;DHT22;16946;49.984;10.672;2023-04-29T00:00:14;10.50;99.90
30134;DHT22;16946;49.984;10.672;2023-04-29T00:00:45;10.50;99.90
30134;DHT22;16946;49.984;10.672;2023-04-29T00:01:16;10.50;99.90
30134;DHT22;16946;49.984;10.672;2023-04-29T00:01:46;10.50;99.90
30134;DHT22;16946;49.984;10.672;2023-04-29T00:02:18;10.50;99.90
30134;DHT22;16946;49.984;10.672;2023-04-29T00:02:48;10.50;99.90
30134;DHT22;16946;49.984;10.672;2023-04-29T00:03:19;10.50;99.90
30134;DHT22;16946;49.984;10.672;2023-04-29T00:03:50;10.50;99.90
30134;DHT22;16946;49.984;10.672;2023-04-29T00:04:21;10.50;99.90
30134;DHT22;16946;49.984;10.672;2023-04-29T00:04:51;10.50;99.90
30134;DHT22;16946;49.984;10.672;2023-04-29T00:05:22;10.50;99.90
30134;DHT22;16946;49.984;10.672;2023-04-29T00:05:52;10.50;99.90
30134;DHT22;16946;49.984;10.672;2023-04-29T00:06:24;10.50;99.90
30134;DHT22;16946;49.984;10.672;2023-04-29T00:06:54;10.60;99.90
30134;DHT22;16946;49.984;10.672;2023-04-29T00:07:25;10.60;99.90
30134;DHT22;16946;49.984;10.672;2023-04-29T00:07:55;10.50;99.90
30134;DHT22;16946;49.984;10.672;2023-04-29T00:08:27;10.60;99.90
30134;DHT22;16946;49.984;10.672;2023-04-29T00:08:58;10.60;99.90
30134;DHT22;16946;49.984;10.672;2023-04-29T00:09:28;10.50;99.90
30134;DHT22;16946;49.984;10.672;2023-04-29T00:09:59;10.60;99.90
30134;DHT22;16946;49.984;10.672;2023-04-29T00:10:30;10.50;99.90
30134;DHT22;16946;49.984;10.672;2023-04-29T00:11:00;10.50;99.90
30134;DHT22;16946;49.984;10.672;2023-04-29T00:11:31;10.50;99.90
30134;DHT22;16946;49.984;10.672;2023-04-29T00:12:01;10.60;99.90
30134;DHT22;16946;49.984;10.672;2023-04-29T00:12:32;10.60;99.90
30134;DHT22;16946;49.984;10.672;2023-04-29T00:13:03;10.60;99.90
30134;DHT22;16946;49.984;10.672;2023-04-29T00:13:33;10.70;99.90
30134;DHT22;16946;49.984;10.672;2023-04-29T00:14:04;10.60;99.90
30134;DHT22;16946;49.984;10.672;2023-04-29T00:14:35;10.60;99.90
30134;DHT22;16946;49.984;10.672;2023-04-29T00:15:06;10.50;99.90
30134;DHT22;16946;49.984;10.672;2023-04-29T00:15:36;10.50;99.90
30134;DHT22;16946;49.984;10.672;2023-04-29T00:16:08;10.50;99.90
30134;DHT22;16946;49.984;10.672;2023-04-29T00:16:39;10.50;99.90
30134;DHT22;16946;49.984;10.672;2023-04-29T00:17:10;10.40;99.90
30134;DHT22;16946;49.984;10.672;2023-04-29T00:17:40;10.40;99.90
30134;DHT22;16946;49.984;10.672;2023-04-29T00:18:11;10.40;99.90
30134;DHT22;16946;49.984;10.672;2023-04-29T00:18:43;10.40;99.90
30134;DHT22;16946;49.984;10.672;2023-04-29T00:19:13;10.40;99.90
30134;DHT22;16946;49.984;10.672;2023-04-29T00:19:44;10.40;99.90
30134;DHT22;16946;49.984;10.672;2023-04-29T00:20:15;10.40;99.90
30134;DHT22;16946;49.984;10.672;2023-04-29T00:20:45;10.40;99.90
30134;DHT22;16946;49.984;10.672;2023-04-29T00:21:16;10.40;99.90
30134;DHT22;16946;49.984;10.672;2023-04-29T00:21:46;10.40;99.90
30134;DHT22;16946;49.984;10.672;2023-04-29T00:22:17;10.40;99.90
30134;DHT22;16946;49.984;10.672;2023-04-29T00:22:47;10.40;99.90
30134;DHT22;16946;49.984;10.672;2023-04-29T00:23:18;10.50;99.90
30134;DHT22;16946;49.984;10.672;2023-04-29T00:23:49;10.50;99.90
30134;DHT22;16946;49.984;10.672;2023-04-29T00:24:20;10.50;99.90
30134;DHT22;16946;49.984;10.672;2023-04-29T00:24:50;10.50;99.90
30134;DHT22;16946;49.984;10.672;2023-04-29T00:25:22;10.40;99.90
30134;DHT22;16946;49.984;10.672;2023-04-29T00:25:52;10.40;99.90
30134;DHT22;16946;49.984;10.672;2023-04-29T00:26:23;10.40;99.90
30134;DHT22;16946;49.984;10.672;2023-04-29T00:26:54;10.40;99.90
30134;DHT22;16946;49.984;10.672;2023-04-29T00:27:24;10.40;99.90
30134;DHT22;16946;49.984;10.672;2023-04-29T00:27:54;10.40;99.90
30134;DHT22;16946;49.984;10.672;2023-04-29T00:28:25;10.40;99.90
30134;DHT22;16946;49.984;10.672;2023-04-29T00:28:56;10.30;99.90
30134;DHT22;16946;49.984;10.672;2023-04-29T00:29:26;10.30;99.90
30134;DHT22;16946;49.984;10.672;2023-04-29T00:29:57;10.30;99.90
30134;DHT22;16946;49.984;10.672;2023-04-29T00:30:28;10.30;99.90
30134;DHT22;16946;49.984;10.672;2023-04-29T00:30:59;10.30;99.90
30134;DHT22;16946;49.984;10.672;2023-04-29T00:31:29;10.30;99.90
30134;DHT22;16946;49.984;10.672;2023-04-29T00:32:01;10.30;99.90
30134;DHT22;16946;49.984;10.672;2023-04-29T00:32:32;10.30;99.90
30134;DHT22;16946;49.984;10.672;2023-04-29T00:33:03;10.30;99.90
30134;DHT22;16946;49.984;10.672;2023-04-29T00:33:34;10.30;99.90
30134;DHT22;16946;49.984;10.672;2023-04-29T00:34:04;10.30;99.90
30134;DHT22;16946;49.984;10.672;2023-04-29T00:34:35;10.20;99.90
30134;DHT22;16946;49.984;10.672;2023-04-29T00:35:06;10.20;99.90
30134;DHT22;16946;49.984;10.672;2023-04-29T00:35:37;10.20;99.90
30134;DHT22;16946;49.984;10.672;2023-04-29T00:36:08;10.20;99.90
30134;DHT22;16946;49.984;10.672;2023-04-29T00:36:39;10.20;99.90
30134;DHT22;16946;49.984;10.672;2023-04-29T00:37:09;10.20;99.90
30134;DHT22;16946;49.984;10.672;2023-04-29T00:37:40;10.20;99.90
30134;DHT22;16946;49.984;10.672;2023-04-29T00:38:10;10.20;99.90
30134;DHT22;16946;49.984;10.672;2023-04-29T00:38:41;10.20;99.90
30134;DHT22;16946;49.984;10.672;2023-04-29T00:39:11;10.20;99.90
30134;DHT22;16946;49.984;10.672;2023-04-29T00:39:43;10.10;99.90
30134;DHT22;16946;49.984;10.672;2023-04-29T00:40:13;10.10;99.90
30134;DHT22;16946;49.984;10.672;2023-04-29T00:40:44;10.10;99.90
30134;DHT22;16946;49.984;10.672;2023-04-29T00:41:15;10.10;99.90
30134;DHT22;16946;49.984;10.672;2023-04-29T00:41:46;10.00;99.90
30134;DHT22;16946;49.984;10.672;2023-04-29T00:42:16;10.00;99.90
30134;DHT22;16946;49.984;10.672;2023-04-29T00:42:47;10.00;99.90
30134;DHT22;16946;49.984;10.672;2023-04-29T00:43:18;10.00;99.90
30134;DHT22;16946;49.984;10.672;2023-04-29T00:43:49;10.00;99.90
30134;DHT22;16946;49.984;10.672;2023-04-29T00:44:19;10.00;99.90
30134;DHT22;16946;49.984;10.672;2023-04-29T00:44:50;10.00;99.90
30134;DHT22;16946;49.984;10.672;2023-04-29T00:45:21;10.00;99.90
30134;DHT22;16946;49.984;10.672;2023-04-29T00:45:52;10.00;99.90
30134;DHT22;16946;49.984;10.672;2023-04-29T00:46:23;9.90;99.90
30134;DHT22;16946;49.984;10.672;2023-04-29T00:46:54;9.90;99.90
30134;DHT22;16946;49.984;10.672;2023-04-29T00:47:25;10.00;99.90
30134;DHT22;16946;49.984;10.672;2023-04-29T00:47:55;9.90;99.90
30134;DHT22;16946;49.984;10.672;2023-04-29T00:48:26;10.00;99.90
30134;DHT22;16946;49.984;10.672;2023-04-29T00:48:57;9.90;99.90
30134;DHT22;16946;49.984;10.672;2023-04-29T00:49:27;9.90;99.90
30134;DHT22;16946;49.984;10.672;2023-04-29T00:49:58;9.90;99.90
30134;DHT22;16946;49.984;10.672;2023-04-29T00:50:29;9.80;99.90
30134;DHT22;16946;49.984;10.672;2023-04-29T00:51:00;9.80;99.90
30134;DHT22;16946;49.984;10.672;2023-04-29T00:51:31;9.80;99.90
30134;DHT22;16946;49.984;10.672;2023-04-29T00:52:03;9.70;99.90
30134;DHT22;16946;49.984;10.672;2023-04-29T00:52:33;9.70;99.90
30134;DHT22;16946;49.984;10.672;2023-04-29T00:53:04;9.70;99.90
30134;DHT22;16946;49.984;10.672;2023-04-29T00:53:35;9.70;99.90
30134;DHT22;16946;49.984;10.672;2023-04-29T00:54:06;9.70;99.90
30134;DHT22;16946;49.984;10.672;2023-04-29T00:54:38;9.60;99.90
30134;DHT22;16946;49.984;10.672;2023-04-29T00:55:10;9.70;99.90
30134;DHT22;16946;49.984;10.672;2023-04-29T00:55:45;9.70;99.90
30134;DHT22;16946;49.984;10.672;2023-04-29T00:56:17;9.70;99.90
30134;DHT22;16946;49.984;10.672;2023-04-29T00:56:51;9.70;99.90
30134;DHT22;16946;49.984;10.672;2023-04-29T00:57:21;9.70;99.90
30134;DHT22;16946;49.984;10.672;2023-04-29T00:57:52;9.60;99.90
30134;DHT22;16946;49.984;10.672;2023-04-29T00:58:23;9.60;99.90
30134;DHT22;16946;49.984;10.672;2023-04-29T00:59:01;9.60;99.90
30134;DHT22;16946;49.984;10.672;2023-04-29T00:59:32;9.60;99.90
30134;DHT22;16946;49.984;10.672;2023-04-29T01:00:04;9.60;99.90
30134;DHT22;16946;49.984;10.672;2023-04-29T01:00:35;9.60;99.90
30134;DHT22;16946;49.984;10.672;2023-04-29T01:01:06;9.60;99.90
30134;DHT22;16946;49.984;10.672;2023-04-29T01:01:37;9.70;99.90
30134;DHT22;16946;49.984;10.672;2023-04-29T01:02:08;9.60;99.90
30134;DHT22;16946;49.984;10.672;2023-04-29T01:02:39;9.60;99.90
30134;DHT22;16946;49.984;10.672;2023-04-29T01:03:10;9.60;99.90
30134;DHT22;16946;49.984;10.672;2023-04-29T01:03:40;9.60;99.90
30134;DHT22;16946;49.984;10.672;2023-04-29T01:04:11;9.60;99.90
30134;DHT22;16946;49.984;10.672;2023-04-29T01:04:42;9.60;99.90
30134;DHT22;16946;49.984;10.672;2023-04-29T01:05:13;9.60;99.90
30134;DHT22;16946;49.984;10.672;2023-04-29T01:05:48;9.60;99.90
30134;DHT22;16946;49.984;10.672;2023-04-29T01:06:48;9.50;99.90
30134;DHT22;16946;49.984;10.672;2023-04-29T01:10:09;9.20;99.90
30134;DHT22;16946;49.984;10.672;2023-04-29T01:10:54;9.10;99.90
30134;DHT22;16946;49.984;10.672;2023-04-29T01:11:34;9.10;99.90
30134;DHT22;16946;49.984;10.672;2023-04-29T01:12:28;9.10;99.90
30134;DHT22;16946;49.984;10.672;2023-04-29T01:13:57;9.10;99.90
30134;DHT22;16946;49.984;10.672;2023-04-29T01:14:30;9.10;99.90
30134;DHT22;16946;49.984;10.672;2023-04-29T01:16:41;9.20;99.90
30134;DHT22;16946;49.984;10.672;2023-04-29T01:17:17;9.20;99.90
30134;DHT22;16946;49.984;10.672;2023-04-29T01:18:32;9.10;99.90
30134;DHT22;16946;49.984;10.672;2023-04-29T01:19:38;9.10;99.90
30134;DHT22;16946;49.984;10.672;2023-04-29T01:20:06;9.10;99.90
30134;DHT22;16946;49.984;10.672;2023-04-29T01:20:38;9.10;99.90
30134;DHT22;16946;49.984;10.672;2023-04-29T01:21:10;9.10;99.90
30134;DHT22;16946;49.984;10.672;2023-04-29T01:21:47;9.10;99.90
30134;DHT22;16946;49.984;10.672;2023-04-29T01:22:21;9.10;99.90
30134;DHT22;16946;49.984;10.672;2023-04-29T01:22:51;9.10;99.90
30134;DHT22;16946;49.984;10.672;2023-04-29T01:23:31;9.10;99.90
30134;DHT22;16946;49.984;10.672;2023-04-29T01:24:01;9.10;99.90
30134;DHT22;16946;49.984;10.672;2023-04-29T01:24:32;9.00;99.90
30134;DHT22;16946;49.984;10.672;2023-04-29T01:25:03;9.00;99.90
30134;DHT22;16946;49.984;10.672;2023-04-29T01:25:35;9.00;99.90
30134;DHT22;16946;49.984;10.672;2023-04-29T01:26:07;9.00;99.90
30134;DHT22;16946;49.984;10.672;2023-04-29T01:26:38;9.10;99.90
30134;DHT22;16946;49.984;10.672;2023-04-29T01:27:15;9.10;99.90
30134;DHT22;16946;49.984;10.672;2023-04-29T01:29:23;9.10;99.90
30134;DHT22;16946;49.984;10.672;2023-04-29T01:30:09;9.10;99.90
30134;DHT22;16946;49.984;10.672;2023-04-29T01:31:04;9.10;99.90
30134;DHT22;16946;49.984;10.672;2023-04-29T01:31:42;9.10;99.90
30134;DHT22;16946;49.984;10.672;2023-04-29T01:32:20;9.20;99.90
30134;DHT22;16946;49.984;10.672;2023-04-29T01:33:09;9.20;99.90
30134;DHT22;16946;49.984;10.672;2023-04-29T01:34:09;9.20;99.90
30134;DHT22;16946;49.984;10.672;2023-04-29T01:35:10;9.20;99.90
30134;DHT22;16946;49.984;10.672;2023-04-29T01:37:26;9.20;99.90
30134;DHT22;16946;49.984;10.672;2023-04-29T01:38:10;9.20;99.90
30134;DHT22;16946;49.984;10.672;2023-04-29T01:40:26;9.20;99.90
30134;DHT22;16946;49.984;10.672;2023-04-29T01:41:10;9.30;99.90
30134;DHT22;16946;49.984;10.672;2023-04-29T01:41:44;9.30;99.90
30134;DHT22;16946;49.984;10.672;2023-04-29T01:42:43;9.30;99.90
30134;DHT22;16946;49.984;10.672;2023-04-29T01:43:16;9.30;99.90
30134;DHT22;16946;49.984;10.672;2023-04-29T01:43:50;9.30;99.90
30134;DHT22;16946;49.984;10.672;2023-04-29T01:44:23;9.30;99.90
30134;DHT22;16946;49.984;10.672;2023-04-29T01:45:00;9.40;99.90
30134;DHT22;16946;49.984;10.672;2023-04-29T01:45:33;9.40;99.90
30134;DHT22;16946;49.984;10.672;2023-04-29T01:46:10;9.40;99.90
30134;DHT22;16946;49.984;10.672;2023-04-29T01:46:43;9.50;99.90
30134;DHT22;16946;49.984;10.672;2023-04-29T01:47:16;9.50;99.90
30134;DHT22;16946;49.984;10.672;2023-04-29T01:47:48;9.50;99.90
30134;DHT22;16946;49.984;10.672;2023-04-29T01:48:20;9.50;99.90
30134;DHT22;16946;49.984;10.672;2023-04-29T01:48:52;9.60;99.90
30134;DHT22;16946;49.984;10.672;2023-04-29T01:49:25;9.50;99.90
30134;DHT22;16946;49.984;10.672;2023-04-29T01:49:55;9.50;99.90
30134;DHT22;16946;49.984;10.672;2023-04-29T01:50:26;9.50;99.90
30134;DHT22;16946;49.984;10.672;2023-04-29T01:50:56;9.50;99.90
30134;DHT22;16946;49.984;10.672;2023-04-29T01:51:27;9.50;99.90
30134;DHT22;16946;49.984;10.672;2023-04-29T01:51:59;9.40;99.90
30134;DHT22;16946;49.984;10.672;2023-04-29T01:52:29;9.40;99.90
30134;DHT22;16946;49.984;10.672;2023-04-29T01:53:00;9.30;99.90
30134;DHT22;16946;49.984;10.672;2023-04-29T01:53:33;9.30;99.90
30134;DHT22;16946;49.984;10.672;2023-04-29T01:54:04;9.30;99.90
30134;DHT22;16946;49.984;10.672;2023-04-29T01:54:34;9.30;99.90
30134;DHT22;16946;49.984;10.672;2023-04-29T01:55:06;9.20;99.90
30134;DHT22;16946;49.984;10.672;2023-04-29T01:55:36;9.20;99.90
30134;DHT22;16946;49.984;10.672;2023-04-29T01:56:07;9.20;99.90
30134;DHT22;16946;49.984;10.672;2023-04-29T01:56:38;9.10;99.90
30134;DHT22;16946;49.984;10.672;2023-04-29T01:57:08;9.10;99.90
30134;DHT22;16946;49.984;10.672;2023-04-29T01:57:39;9.10;99.90
30134;DHT22;16946;49.984;10.672;2023-04-29T01:58:10;9.10;99.90
30134;DHT22;16946;49.984;10.672;2023-04-29T01:58:40;9.10;99.90
30134;DHT22;16946;49.984;10.672;2023-04-29T01:59:11;9.20;99.90
30134;DHT22;16946;49.984;10.672;2023-04-29T01:59:42;9.20;99.90
30134;DHT22;16946;49.984;10.672;2023-04-29T02:00:12;9.20;99.90
30134;DHT22;16946;49.984;10.672;2023-04-29T02:00:43;9.20;99.90
30134;DHT22;16946;49.984;10.672;2023-04-29T02:01:13;9.20;99.90
30134;DHT22;16946;49.984;10.672;2023-04-29T02:01:44;9.30;99.90
30134;DHT22;16946;49.984;10.672;2023-04-29T02:02:15;9.30;99.90
30134;DHT22;16946;49.984;10.672;2023-04-29T02:02:46;9.30;99.90
30134;DHT22;16946;49.984;10.672;2023-04-29T02:03:17;9.30;99.90
30134;DHT22;16946;49.984;10.672;2023-04-29T02:03:48;9.30;99.90
30134;DHT22;16946;49.984;10.672;2023-04-29T02:04:18;9.20;99.90
30134;DHT22;16946;49.984;10.672;2023-04-29T02:04:49;9.30;99.90
30134;DHT22;16946;49.984;10.672;2023-04-29T02:05:19;9.20;99.90
30134;DHT22;16946;49.984;10.672;2023-04-29T02:05:50;9.20;99.90
30134;DHT22;16946;49.984;10.672;2023-04-29T02:06:20;9.20;99.90
30134;DHT22;16946;49.984;10.672;2023-04-29T02:06:51;9.20;99.90
30134;DHT22;16946;49.984;10.672;2023-04-29T02:07:22;9.20;99.90
30134;DHT22;16946;49.984;10.672;2023-04-29T02:07:52;9.20;99.90
30134;DHT22;16946;49.984;10.672;2023-04-29T02:08:23;9.20;99.90
30134;DHT22;16946;49.984;10.672;2023-04-29T02:08:53;9.20;99.90
30134;DHT22;16946;49.984;10.672;2023-04-29T02:09:24;9.20;99.90
30134;DHT22;16946;49.984;10.672;2023-04-29T02:09:54;9.20;99.90
30134;DHT22;16946;49.984;10.672;2023-04-29T02:10:26;9.30;99.90
30134;DHT22;16946;49.984;10.672;2023-04-29T02:10:58;9.20;99.90
30134;DHT22;16946;49.984;10.672;2023-04-29T02:11:29;9.20;99.90
30134;DHT22;16946;49.984;10.672;2023-04-29T02:11:59;9.30;99.90
30134;DHT22;16946;49.984;10.672;2023-04-29T02:12:30;9.30;99.90
30134;DHT22;16946;49.984;10.672;2023-04-29T02:13:01;9.30;99.90
30134;DHT22;16946;49.984;10.672;2023-04-29T02:13:32;9.30;99.90
30134;DHT22;16946;49.984;10.672;2023-04-29T02:14:03;9.30;99.90
30134;DHT22;16946;49.984;10.672;2023-04-29T02:14:33;9.40;99.90
30134;DHT22;16946;49.984;10.672;2023-04-29T02:15:04;9.40;99.90
30134;DHT22;16946;49.984;10.672;2023-04-29T02:15:36;9.40;99.90
30134;DHT22;16946;49.984;10.672;2023-04-29T02:16:08;9.40;99.90
30134;DHT22;16946;49.984;10.672;2023-04-29T02:16:38;9.40;99.90
30134;DHT22;16946;49.984;10.672;2023-04-29T02:17:09;9.40;99.90
30134;DHT22;16946;49.984;10.672;2023-04-29T02:17:40;9.40;99.90
30134;DHT22;16946;49.984;10.672;2023-04-29T02:18:10;9.30;99.90
30134;DHT22;16946;49.984;10.672;2023-04-29T02:18:41;9.30;99.90
30134;DHT22;16946;49.984;10.672;2023-04-29T02:19:12;9.20;99.90
30134;DHT22;16946;49.984;10.672;2023-04-29T02:19:43;9.20;99.90
30134;DHT22;16946;49.984;10.672;2023-04-29T02:20:13;9.20;99.90
30134;DHT22;16946;49.984;10.672;2023-04-29T02:20:44;9.30;99.90
30134;DHT22;16946;49.984;10.672;2023-04-29T02:21:15;9.30;99.90
30134;DHT22;16946;49.984;10.672;2023-04-29T02:21:45;9.30;99.90
30134;DHT22;16946;49.984;10.672;2023-04-29T02:22:16;9.30;99.90
30134;DHT22;16946;49.984;10.672;2023-04-29T02:22:46;9.40;99.90
30134;DHT22;16946;49.984;10.672;2023-04-29T02:23:17;9.40;99.90
30134;DHT22;16946;49.984;10.672;2023-04-29T02:23:47;9.40;99.90
30134;DHT22;16946;49.984;10.672;2023-04-29T02:24:18;9.50;99.90
30134;DHT22;16946;49.984;10.672;2023-04-29T02:24:48;9.50;99.90
30134;DHT22;16946;49.984;10.672;2023-04-29T02:25:19;9.40;99.90
30134;DHT22;16946;49.984;10.672;2023-04-29T02:25:50;9.40;99.90
30134;DHT22;16946;49.984;10.672;2023-04-29T02:26:21;9.40;99.90
30134;DHT22;16946;49.984;10.672;2023-04-29T02:26:51;9.50;99.90
30134;DHT22;16946;49.984;10.672;2023-04-29T02:27:22;9.50;99.90
30134;DHT22;16946;49.984;10.672;2023-04-29T02:27:53;9.40;99.90
30134;DHT22;16946;49.984;10.672;2023-04-29T02:28:23;9.40;99.90
30134;DHT22;16946;49.984;10.672;2023-04-29T02:28:54;9.40;99.90
30134;DHT22;16946;49.984;10.672;2023-04-29T02:29:26;9.40;99.90
30134;DHT22;16946;49.984;10.672;2023-04-29T02:29:59;9.40;99.90
30134;DHT22;16946;49.984;10.672;2023-04-29T02:30:29;9.40;99.90
30134;DHT22;16946;49.984;10.672;2023-04-29T02:31:00;9.40;99.90
30134;DHT22;16946;49.984;10.672;2023-04-29T02:31:30;9.40;99.90
30134;DHT22;16946;49.984;10.672;2023-04-29T02:32:01;9.40;99.90
30134;DHT22;16946;49.984;10.672;2023-04-29T02:32:32;9.30;99.90
30134;DHT22;16946;49.984;10.672;2023-04-29T02:33:03;9.40;99.90
30134;DHT22;16946;49.984;10.672;2023-04-29T02:33:33;9.30;99.90
30134;DHT22;16946;49.984;10.672;2023-04-29T02:34:04;9.30;99.90
30134;DHT22;16946;49.984;10.672;2023-04-29T02:34:34;9.30;99.90
30134;DHT22;16946;49.984;10.672;2023-04-29T02:35:06;9.20;99.90
30134;DHT22;16946;49.984;10.672;2023-04-29T02:35:37;9.10;99.90
30134;DHT22;16946;49.984;10.672;2023-04-29T02:36:08;9.00;99.90
30134;DHT22;16946;49.984;10.672;2023-04-29T02:36:38;8.90;99.90
30134;DHT22;16946;49.984;10.672;2023-04-29T02:37:09;8.90;99.90
30134;DHT22;16946;49.984;10.672;2023-04-29T02:37:40;8.90;99.90
30134;DHT22;16946;49.984;10.672;2023-04-29T02:38:11;8.80;99.90
30134;DHT22;16946;49.984;10.672;2023-04-29T02:38:42;8.80;99.90
30134;DHT22;16946;49.984;10.672;2023-04-29T02:39:12;8.70;99.90
30134;DHT22;16946;49.984;10.672;2023-04-29T02:39:43;8.60;99.90
30134;DHT22;16946;49.984;10.672;2023-04-29T02:40:13;8.60;99.90
30134;DHT22;16946;49.984;10.672;2023-04-29T02:40:45;8.50;99.90
30134;DHT22;16946;49.984;10.672;2023-04-29T02:41:16;8.60;99.90
30134;DHT22;16946;49.984;10.672;2023-04-29T02:41:47;8.50;99.90
30134;DHT22;16946;49.984;10.672;2023-04-29T02:42:18;8.50;99.90
30134;DHT22;16946;49.984;10.672;2023-04-29T02:42:49;8.40;99.90
30134;DHT22;16946;49.984;10.672;2023-04-29T02:43:20;8.50;99.90
30134;DHT22;16946;49.984;10.672;2023-04-29T02:43:50;8.40;99.90
30134;DHT22;16946;49.984;10.672;2023-04-29T02:44:21;8.50;99.90
30134;DHT22;16946;49.984;10.672;2023-04-29T02:44:51;8.50;99.90
30134;DHT22;16946;49.984;10.672;2023-04-29T02:45:22;8.50;99.90
30134;DHT22;16946;49.984;10.672;2023-04-29T02:45:52;8.60;99.90
30134;DHT22;16946;49.984;10.672;2023-04-29T02:46:23;8.60;99.90
30134;DHT22;16946;49.984;10.672;2023-04-29T02:46:53;8.60;99.90
30134;DHT22;16946;49.984;10.672;2023-04-29T02:47:24;8.60;99.90
30134;DHT22;16946;49.984;10.672;2023-04-29T02:47:54;8.60;99.90
30134;DHT22;16946;49.984;10.672;2023-04-29T02:48:25;8.60;99.90
30134;DHT22;16946;49.984;10.672;2023-04-29T02:48:56;8.60;99.90
30134;DHT22;16946;49.984;10.672;2023-04-29T02:49:26;8.70;99.90
30134;DHT22;16946;49.984;10.672;2023-04-29T02:49:57;8.70;99.90
30134;DHT22;16946;49.984;10.672;2023-04-29T02:50:27;8.70;99.90
30134;DHT22;16946;49.984;10.672;2023-04-29T02:50:58;8.70;99.90
30134;DHT22;16946;49.984;10.672;2023-04-29T02:51:28;8.70;99.90
30134;DHT22;16946;49.984;10.672;2023-04-29T02:52:00;8.80;99.90
30134;DHT22;16946;49.984;10.672;2023-04-29T02:52:30;8.80;99.90
30134;DHT22;16946;49.984;10.672;2023-04-29T02:53:01;8.80;99.90
30134;DHT22;16946;49.984;10.672;2023-04-29T02:53:32;8.80;99.90
30134;DHT22;16946;49.984;10.672;2023-04-29T02:54:02;8.80;99.90
30134;DHT22;16946;49.984;10.672;2023-04-29T02:54:33;8.90;99.90
30134;DHT22;16946;49.984;10.672;2023-04-29T02:55:04;8.90;99.90
30134;DHT22;16946;49.984;10.672;2023-04-29T02:55:34;8.90;99.90
30134;DHT22;16946;49.984;10.672;2023-04-29T02:56:05;9.00;99.90
30134;DHT22;16946;49.984;10.672;2023-04-29T02:56:36;9.00;99.90
30134;DHT22;16946;49.984;10.672;2023-04-29T02:57:07;9.10;99.90
30134;DHT22;16946;49.984;10.672;2023-04-29T02:57:38;9.10;99.90
30134;DHT22;16946;49.984;10.672;2023-04-29T02:58:09;9.10;99.90
30134;DHT22;16946;49.984;10.672;2023-04-29T02:58:39;9.20;99.90
30134;DHT22;16946;49.984;10.672;2023-04-29T02:59:11;9.20;99.90
30134;DHT22;16946;49.984;10.672;2023-04-29T02:59:42;9.20;99.90
30134;DHT22;16946;49.984;10.672;2023-04-29T03:00:14;9.30;99.90
30134;DHT22;16946;49.984;10.672;2023-04-29T03:00:44;9.30;99.90
30134;DHT22;16946;49.984;10.672;2023-04-29T03:01:15;9.30;99.90
30134;DHT22;16946;49.984;10.672;2023-04-29T03:01:45;9.30;99.90
30134;DHT22;16946;49.984;10.672;2023-04-29T03:02:16;9.30;99.90
30134;DHT22;16946;49.984;10.672;2023-04-29T03:02:47;9.30;99.90
30134;DHT22;16946;49.984;10.672;2023-04-29T03:03:17;9.30;99.90
30134;DHT22;16946;49.984;10.672;2023-04-29T03:03:48;9.30;99.90
30134;DHT22;16946;49.984;10.672;2023-04-29T03:04:19;9.30;99.90
30134;DHT22;16946;49.984;10.672;2023-04-29T03:04:49;9.40;99.90
30134;DHT22;16946;49.984;10.672;2023-04-29T03:05:20;9.40;99.90
30134;DHT22;16946;49.984;10.672;2023-04-29T03:05:50;9.40;99.90
30134;DHT22;16946;49.984;10.672;2023-04-29T03:06:21;9.50;99.90
30134;DHT22;16946;49.984;10.672;2023-04-29T03:06:54;9.50;99.90
30134;DHT22;16946;49.984;10.672;2023-04-29T03:07:25;9.50;99.90
30134;DHT22;16946;49.984;10.672;2023-04-29T03:07:57;9.50;99.90
30134;DHT22;16946;49.984;10.672;2023-04-29T03:08:27;9.50;99.90
30134;DHT22;16946;49.984;10.672;2023-04-29T03:08:58;9.50;99.90
30134;DHT22;16946;49.984;10.672;2023-04-29T03:09:28;9.50;99.90
30134;DHT22;16946;49.984;10.672;2023-04-29T03:10:00;9.60;99.90
30134;DHT22;16946;49.984;10.672;2023-04-29T03:10:31;9.60;99.90
30134;DHT22;16946;49.984;10.672;2023-04-29T03:11:01;9.60;99.90
30134;DHT22;16946;49.984;10.672;2023-04-29T03:11:32;9.60;99.90
30134;DHT22;16946;49.984;10.672;2023-04-29T03:12:02;9.60;99.90
30134;DHT22;16946;49.984;10.672;2023-04-29T03:12:33;9.60;99.90
30134;DHT22;16946;49.984;10.672;2023-04-29T03:13:04;9.50;99.90
30134;DHT22;16946;49.984;10.672;2023-04-29T03:13:34;9.40;99.90
30134;DHT22;16946;49.984;10.672;2023-04-29T03:14:05;9.40;99.90
30134;DHT22;16946;49.984;10.672;2023-04-29T03:14:35;9.30;99.90
30134;DHT22;16946;49.984;10.672;2023-04-29T03:15:06;9.30;99.90
30134;DHT22;16946;49.984;10.672;2023-04-29T03:15:37;9.20;99.90
30134;DHT22;16946;49.984;10.672;2023-04-29T03:16:08;9.10;99.90
30134;DHT22;16946;49.984;10.672;2023-04-29T03:16:39;9.00;99.90
30134;DHT22;16946;49.984;10.672;2023-04-29T03:17:10;9.00;99.90
30134;DHT22;16946;49.984;10.672;2023-04-29T03:17:41;8.90;99.90
30134;DHT22;16946;49.984;10.672;2023-04-29T03:18:11;8.90;99.90
30134;DHT22;16946;49.984;10.672;2023-04-29T03:18:43;8.90;99.90
30134;DHT22;16946;49.984;10.672;2023-04-29T03:19:14;8.90;99.90
30134;DHT22;16946;49.984;10.672;2023-04-29T03:19:46;8.90;99.90
30134;DHT22;16946;49.984;10.672;2023-04-29T03:20:16;8.90;99.90
30134;DHT22;16946;49.984;10.672;2023-04-29T03:20:47;8.90;99.90
30134;DHT22;16946;49.984;10.672;2023-04-29T03:21:17;8.90;99.90
30134;DHT22;16946;49.984;10.672;2023-04-29T03:21:48;9.00;99.90
30134;DHT22;16946;49.984;10.672;2023-04-29T03:22:19;9.00;99.90
30134;DHT22;16946;49.984;10.672;2023-04-29T03:22:50;9.00;99.90
30134;DHT22;16946;49.984;10.672;2023-04-29T03:23:20;9.10;99.90
30134;DHT22;16946;49.984;10.672;2023-04-29T03:23:51;9.10;99.90
30134;DHT22;16946;49.984;10.672;2023-04-29T03:24:22;9.10;99.90
30134;DHT22;16946;49.984;10.672;2023-04-29T03:24:52;9.20;99.90
30134;DHT22;16946;49.984;10.672;2023-04-29T03:25:23;9.20;99.90
30134;DHT22;16946;49.984;10.672;2023-04-29T03:25:53;9.20;99.90
30134;DHT22;16946;49.984;10.672;2023-04-29T03:26:24;9.20;99.90
30134;DHT22;16946;49.984;10.672;2023-04-29T03:26:55;9.30;99.90
30134;DHT22;16946;49.984;10.672;2023-04-29T03:27:25;9.30;99.90
30134;DHT22;16946;49.984;10.672;2023-04-29T03:27:56;9.30;99.90
30134;DHT22;16946;49.984;10.672;2023-04-29T03:28:27;9.30;99.90
30134;DHT22;16946;49.984;10.672;2023-04-29T03:28:57;9.40;99.90
30134;DHT22;16946;49.984;10.672;2023-04-29T03:29:28;9.40;99.90
30134;DHT22;16946;49.984;10.672;2023-04-29T03:29:59;9.40;99.90
30134;DHT22;16946;49.984;10.672;2023-04-29T03:30:29;9.30;99.90
30134;DHT22;16946;49.984;10.672;2023-04-29T03:31:00;9.30;99.90
30134;DHT22;16946;49.984;10.672;2023-04-29T03:31:31;9.30;99.90